Ana Sayfa
METAR-TAF:

METAR-TAF

Havaalanları :

Kingaroy, Avustralya

Enlem: 26-34-48S, Boylam: 151-50-30E, yükseklik: 455 m

Güncel hava durumu gözlemi

Rapor saat 08:00 UTC de 44 dakika önce yapıldı.
Rüzgar güney/güneybatıdan 5 kt
Sıcaklık 10°C
Nem 71%
Basınç 1018 hPa
Görüş mesafesi 10 km veya daha fazla

METAR: YKRY 180800Z AUTO 20005KT 9999 // NCD 10/05 Q1018

Saat: 18:44 (08:44 UTC)


TAF: eksik

4.000'den fazla havaalanı için hava durumu gözlemleri ve tahminleri (METAR ve TAF raporları).

Kullanılabilir istasyonlar harita üzerinde sarı ve kırmızı noktalarla gösterilir.

İstasyonun adını görmek için fareyi noktanın üzerinde gezdirin.

Sonrasında hava gözlem ve tahminlerini görmek için tıklayın.

Haritayı değiştirmek için: yaklaştırmak için siyah artı işaretli yeşil düğmeye ve uzaklaştırmak için de eksi işaretli düğmeye hızla tıklayın; bitişik haritalar için yeşil okları kullanın.


METAR-TAF: